createdAt,value
2017-12-22T00:00:31.372Z,50.80
2017-12-22T00:01:36.515Z,50.80
2017-12-22T00:02:41.370Z,50.80
2017-12-22T00:03:46.447Z,50.90
2017-12-22T00:04:51.518Z,50.90
2017-12-22T00:05:56.387Z,51.00
2017-12-22T00:07:01.275Z,51.00
2017-12-22T00:08:06.368Z,50.90
2017-12-22T00:09:11.223Z,51.10
2017-12-22T00:10:16.352Z,51.00
2017-12-22T00:11:21.302Z,51.00
2017-12-22T00:12:26.337Z,51.10
2017-12-22T00:13:31.191Z,51.10
2017-12-22T00:14:36.165Z,51.10
2017-12-22T00:15:41.155Z,51.20
2017-12-22T00:16:46.074Z,51.10
2017-12-22T00:17:50.891Z,51.10
2017-12-22T00:18:55.910Z,51.20
2017-12-22T00:20:00.610Z,51.20
2017-12-22T00:21:05.539Z,51.20
2017-12-22T00:22:10.444Z,51.20
2017-12-22T00:23:15.169Z,51.30
2017-12-22T00:24:19.932Z,51.20
2017-12-22T00:25:24.766Z,51.30
2017-12-22T00:26:29.649Z,51.20
2017-12-22T00:27:34.459Z,51.30
2017-12-22T00:28:39.633Z,51.30
2017-12-22T00:29:44.510Z,51.30
2017-12-22T00:30:49.387Z,51.30
2017-12-22T00:31:54.334Z,51.30
2017-12-22T00:32:59.280Z,51.30
2017-12-22T00:34:04.123Z,51.30
2017-12-22T00:35:09.113Z,51.30
2017-12-22T00:36:13.898Z,51.30
2017-12-22T00:37:18.630Z,51.30
2017-12-22T00:38:23.580Z,51.30
2017-12-22T00:39:28.604Z,51.30
2017-12-22T00:40:33.369Z,51.40
2017-12-22T00:41:38.189Z,51.40
2017-12-22T00:42:42.877Z,51.40
2017-12-22T00:43:50.851Z,51.40
2017-12-22T00:44:55.600Z,51.40
2017-12-22T00:46:00.482Z,51.40
2017-12-22T00:47:05.469Z,51.40
2017-12-22T00:48:10.219Z,51.50
2017-12-22T00:49:15.150Z,51.40
2017-12-22T00:50:19.999Z,51.40
2017-12-22T00:51:24.956Z,51.50
2017-12-22T00:52:29.880Z,51.40
2017-12-22T00:53:34.859Z,51.50
2017-12-22T00:54:39.761Z,51.50
2017-12-22T00:55:44.587Z,51.50
2017-12-22T00:56:49.658Z,51.50
2017-12-22T00:57:54.809Z,51.50
2017-12-22T00:58:59.814Z,51.50
2017-12-22T01:00:05.570Z,51.50
2017-12-22T01:01:10.533Z,51.60
2017-12-22T01:02:15.529Z,51.50
2017-12-22T01:03:20.735Z,51.60
2017-12-22T01:04:25.910Z,51.50
2017-12-22T01:05:30.869Z,51.50
2017-12-22T01:06:36.155Z,51.60
2017-12-22T01:07:41.011Z,52.20
2017-12-22T01:08:46.142Z,51.50
2017-12-22T01:09:51.299Z,51.60
2017-12-22T01:10:56.215Z,51.60
2017-12-22T01:12:01.260Z,51.60
2017-12-22T01:13:06.970Z,51.60
2017-12-22T01:14:12.094Z,51.60
2017-12-22T01:15:16.879Z,51.60
2017-12-22T01:16:21.826Z,51.60
2017-12-22T01:17:26.773Z,51.60
2017-12-22T01:18:31.595Z,51.60
2017-12-22T01:19:36.567Z,51.60
2017-12-22T01:20:41.781Z,51.70
2017-12-22T01:21:46.629Z,51.60
2017-12-22T01:22:51.581Z,51.60
2017-12-22T01:23:56.447Z,51.60
2017-12-22T01:25:01.322Z,51.70
2017-12-22T01:26:06.332Z,51.60
2017-12-22T01:27:11.433Z,51.50
2017-12-22T01:28:16.838Z,51.60
2017-12-22T01:29:21.801Z,51.60
2017-12-22T01:30:26.854Z,51.60
2017-12-22T01:31:31.914Z,51.60
2017-12-22T01:32:36.872Z,51.70
2017-12-22T01:33:41.734Z,51.70
2017-12-22T01:34:46.838Z,51.70
2017-12-22T01:35:51.633Z,51.70
2017-12-22T01:36:56.678Z,51.80
2017-12-22T01:38:01.707Z,51.70
2017-12-22T01:39:06.830Z,51.70
2017-12-22T01:40:11.811Z,51.70
2017-12-22T01:41:16.813Z,51.80
2017-12-22T01:42:22.039Z,51.70
2017-12-22T01:43:27.039Z,51.80
2017-12-22T01:44:31.891Z,51.70
2017-12-22T01:45:37.688Z,51.70
2017-12-22T01:46:42.739Z,51.80
2017-12-22T01:47:47.792Z,51.70
2017-12-22T01:48:52.891Z,51.80
2017-12-22T01:49:57.886Z,51.80
2017-12-22T01:51:02.880Z,51.80
2017-12-22T01:52:07.977Z,51.70
2017-12-22T01:53:13.004Z,51.80
2017-12-22T01:54:17.869Z,51.80
2017-12-22T01:55:22.931Z,51.70
2017-12-22T01:56:27.742Z,51.80
2017-12-22T01:57:32.706Z,51.80
2017-12-22T01:58:37.603Z,52.40
2017-12-22T01:59:42.456Z,51.80
2017-12-22T02:00:47.433Z,51.80
2017-12-22T02:01:52.236Z,51.80
2017-12-22T02:02:56.995Z,51.80
2017-12-22T02:04:02.908Z,51.80
2017-12-22T02:05:08.224Z,51.80
2017-12-22T02:06:13.154Z,51.80
2017-12-22T02:07:18.020Z,51.80
2017-12-22T02:08:22.989Z,51.80
2017-12-22T02:09:27.939Z,51.80
2017-12-22T02:10:33.001Z,51.80
2017-12-22T02:11:37.981Z,51.80
2017-12-22T02:12:42.942Z,51.90
2017-12-22T02:13:47.831Z,51.90
2017-12-22T02:14:53.048Z,51.90
2017-12-22T02:15:57.977Z,51.90
2017-12-22T02:17:02.799Z,51.90
2017-12-22T02:18:07.706Z,52.50
2017-12-22T02:19:12.654Z,51.90
2017-12-22T02:20:17.662Z,51.90
2017-12-22T02:21:22.723Z,51.90
2017-12-22T02:22:28.276Z,51.90
2017-12-22T02:23:33.280Z,51.90
2017-12-22T02:24:38.117Z,51.90
2017-12-22T02:25:42.949Z,51.90
2017-12-22T02:26:47.912Z,52.00
2017-12-22T02:27:52.921Z,52.00
2017-12-22T02:28:57.788Z,52.00
2017-12-22T02:30:02.725Z,51.90
2017-12-22T02:31:07.559Z,51.90
2017-12-22T02:32:12.466Z,52.00
2017-12-22T02:33:17.300Z,52.00
2017-12-22T02:34:22.120Z,52.00
2017-12-22T02:35:26.937Z,52.00
2017-12-22T02:36:31.854Z,52.00
2017-12-22T02:37:36.743Z,52.00
2017-12-22T02:38:41.558Z,52.00
2017-12-22T02:39:46.616Z,52.00
2017-12-22T02:40:52.041Z,52.00
2017-12-22T02:41:56.942Z,52.00
2017-12-22T02:43:01.889Z,52.00
2017-12-22T02:44:06.777Z,52.00
2017-12-22T02:45:11.806Z,52.00
2017-12-22T02:46:16.782Z,52.10
2017-12-22T02:47:21.651Z,52.00
2017-12-22T02:48:26.645Z,52.00
2017-12-22T02:49:31.582Z,52.10
2017-12-22T02:50:36.688Z,52.00
2017-12-22T02:51:41.544Z,52.00
2017-12-22T02:52:46.334Z,52.00
2017-12-22T02:53:51.343Z,52.10
2017-12-22T02:54:56.280Z,52.00
2017-12-22T02:56:01.402Z,52.00
2017-12-22T02:57:06.377Z,52.00
2017-12-22T02:58:11.281Z,52.00
2017-12-22T02:59:16.141Z,52.10
2017-12-22T03:00:21.203Z,52.10
2017-12-22T03:01:26.000Z,52.10
2017-12-22T03:02:30.903Z,52.10
2017-12-22T03:03:35.806Z,52.10
2017-12-22T03:04:40.846Z,52.10
2017-12-22T03:05:45.742Z,52.10
2017-12-22T03:06:50.548Z,52.10
2017-12-22T03:07:55.429Z,52.10
2017-12-22T03:09:00.202Z,52.10
2017-12-22T03:10:05.313Z,52.10
2017-12-22T03:11:10.452Z,52.10
2017-12-22T03:12:15.245Z,52.10
2017-12-22T03:13:20.298Z,52.10
2017-12-22T03:14:25.400Z,52.10
2017-12-22T03:15:30.454Z,52.10
2017-12-22T03:16:35.539Z,52.10
2017-12-22T03:17:40.644Z,52.20
2017-12-22T03:18:45.479Z,52.10
2017-12-22T03:19:50.258Z,52.10
2017-12-22T03:20:55.150Z,52.10
2017-12-22T03:21:59.913Z,52.10
2017-12-22T03:23:04.840Z,52.10
2017-12-22T03:24:09.656Z,52.20
2017-12-22T03:25:14.369Z,52.10
2017-12-22T03:26:19.355Z,52.20
2017-12-22T03:27:24.187Z,52.10
2017-12-22T03:28:28.961Z,52.20
2017-12-22T03:29:33.889Z,52.10
2017-12-22T03:30:38.788Z,52.10
2017-12-22T03:31:43.695Z,52.20
2017-12-22T03:32:48.682Z,52.20
2017-12-22T03:33:53.707Z,52.10
2017-12-22T03:34:58.493Z,52.20
2017-12-22T03:36:03.900Z,52.20
2017-12-22T03:37:08.862Z,52.20
2017-12-22T03:38:13.716Z,52.10
2017-12-22T03:39:18.689Z,52.00
2017-12-22T03:40:23.703Z,51.70
2017-12-22T03:41:28.603Z,51.60
2017-12-22T03:42:33.605Z,51.40
2017-12-22T03:43:38.447Z,51.30
2017-12-22T03:44:43.235Z,51.30
2017-12-22T03:45:48.049Z,51.30
2017-12-22T03:46:52.853Z,51.30
2017-12-22T03:47:57.835Z,51.30
2017-12-22T03:49:02.733Z,51.30
2017-12-22T03:50:07.729Z,51.40
2017-12-22T03:51:12.729Z,51.30
2017-12-22T03:52:17.585Z,51.30
2017-12-22T03:53:22.556Z,51.30
2017-12-22T03:54:27.975Z,51.30
2017-12-22T03:55:32.947Z,51.40
2017-12-22T03:56:37.860Z,51.30
2017-12-22T03:57:42.812Z,51.30
2017-12-22T03:58:47.832Z,51.30
2017-12-22T03:59:52.679Z,51.30
2017-12-22T04:00:57.762Z,51.30
2017-12-22T04:02:02.821Z,51.30
2017-12-22T04:03:07.791Z,51.30
2017-12-22T04:04:12.670Z,51.30
2017-12-22T04:05:17.636Z,51.20
2017-12-22T04:06:22.818Z,51.30
2017-12-22T04:07:27.807Z,51.20
2017-12-22T04:08:32.636Z,51.20
2017-12-22T04:09:37.470Z,51.20
2017-12-22T04:10:42.448Z,51.20
2017-12-22T04:11:47.344Z,51.10
2017-12-22T04:12:52.801Z,51.20
2017-12-22T04:13:57.656Z,51.10
2017-12-22T04:15:02.610Z,51.20
2017-12-22T04:16:07.589Z,51.20
2017-12-22T04:17:12.653Z,51.20
2017-12-22T04:18:17.582Z,51.20
2017-12-22T04:19:22.712Z,51.20
2017-12-22T04:20:27.721Z,51.20
2017-12-22T04:21:32.765Z,51.20
2017-12-22T04:22:37.863Z,51.20
2017-12-22T04:23:42.791Z,51.20
2017-12-22T04:24:47.695Z,51.10
2017-12-22T04:25:52.692Z,51.10
2017-12-22T04:26:57.674Z,51.10
2017-12-22T04:28:02.637Z,51.10
2017-12-22T04:29:07.647Z,51.10
2017-12-22T04:30:12.704Z,51.10
2017-12-22T04:31:17.802Z,51.10
2017-12-22T04:32:22.640Z,51.10
2017-12-22T04:33:27.373Z,51.10
2017-12-22T04:34:32.186Z,51.10
2017-12-22T04:35:37.407Z,51.10
2017-12-22T04:36:42.508Z,51.10
2017-12-22T04:37:47.429Z,51.10
2017-12-22T04:38:52.389Z,51.10
2017-12-22T04:39:57.413Z,51.10
2017-12-22T04:41:02.415Z,51.10
2017-12-22T04:42:07.256Z,51.10
2017-12-22T04:43:12.413Z,51.10
2017-12-22T04:44:17.255Z,51.10
2017-12-22T04:45:22.335Z,51.10
2017-12-22T04:46:27.288Z,51.20
2017-12-22T04:47:32.153Z,51.30
2017-12-22T04:48:37.111Z,51.40
2017-12-22T04:49:42.146Z,51.40
2017-12-22T04:50:47.021Z,51.60
2017-12-22T04:51:51.986Z,51.70
2017-12-22T04:52:56.821Z,51.70
2017-12-22T04:54:01.592Z,51.70
2017-12-22T04:55:06.588Z,51.80
2017-12-22T04:56:11.653Z,51.80
2017-12-22T04:57:16.612Z,51.90
2017-12-22T04:58:21.741Z,51.90
2017-12-22T04:59:26.554Z,51.90
2017-12-22T05:00:31.578Z,51.90
2017-12-22T05:01:36.498Z,52.00
2017-12-22T05:02:41.397Z,52.10
2017-12-22T05:03:46.288Z,52.00
2017-12-22T05:04:51.141Z,52.10
2017-12-22T05:05:56.213Z,52.10
2017-12-22T05:07:01.293Z,52.10
2017-12-22T05:08:06.504Z,52.10
2017-12-22T05:09:11.532Z,52.10
2017-12-22T05:10:16.622Z,52.10
2017-12-22T05:11:21.675Z,52.20
2017-12-22T05:12:26.716Z,52.20
2017-12-22T05:13:32.182Z,52.20
2017-12-22T05:14:37.169Z,52.20
2017-12-22T05:15:42.159Z,52.20
2017-12-22T05:16:47.184Z,52.20
2017-12-22T05:17:52.033Z,52.20
2017-12-22T05:18:57.029Z,52.30
2017-12-22T05:20:01.912Z,52.20
2017-12-22T05:21:06.943Z,52.30
2017-12-22T05:22:11.851Z,52.20
2017-12-22T05:23:16.689Z,52.20
2017-12-22T05:24:21.470Z,52.30
2017-12-22T05:25:26.478Z,52.30
2017-12-22T05:26:31.605Z,52.30
2017-12-22T05:27:36.717Z,52.30
2017-12-22T05:28:41.559Z,52.20
2017-12-22T05:29:46.465Z,52.30
2017-12-22T05:30:51.454Z,52.30
2017-12-22T05:31:56.397Z,52.30
2017-12-22T05:33:01.314Z,52.30
2017-12-22T05:34:06.149Z,52.20
2017-12-22T05:35:11.107Z,52.30
2017-12-22T05:36:15.972Z,52.30
2017-12-22T05:37:20.678Z,52.40
2017-12-22T05:38:25.665Z,52.30
2017-12-22T05:39:30.464Z,52.40
2017-12-22T05:40:35.471Z,52.30
2017-12-22T05:41:40.535Z,52.40
2017-12-22T05:42:45.486Z,52.30
2017-12-22T05:43:50.430Z,52.40
2017-12-22T05:44:55.341Z,52.40
2017-12-22T05:46:00.144Z,52.50
2017-12-22T05:47:05.097Z,52.40
2017-12-22T05:48:10.022Z,52.40
2017-12-22T05:49:15.144Z,52.40
2017-12-22T05:50:19.890Z,52.50
2017-12-22T05:51:24.850Z,52.40
2017-12-22T05:52:29.871Z,52.40
2017-12-22T05:53:34.785Z,52.50
2017-12-22T05:54:39.865Z,52.50
2017-12-22T05:55:44.678Z,52.50
2017-12-22T05:56:49.655Z,52.50
2017-12-22T05:57:54.538Z,52.50
2017-12-22T05:58:59.357Z,52.50
2017-12-22T06:00:04.804Z,52.40
2017-12-22T06:01:09.823Z,52.50
2017-12-22T06:02:14.757Z,52.60
2017-12-22T06:03:19.739Z,52.50
2017-12-22T06:04:24.626Z,52.50
2017-12-22T06:05:29.452Z,52.50
2017-12-22T06:06:34.424Z,52.50
2017-12-22T06:07:39.476Z,52.50
2017-12-22T06:08:44.459Z,52.50
2017-12-22T06:09:49.798Z,52.50
2017-12-22T06:10:54.773Z,52.60
2017-12-22T06:11:59.695Z,52.50
2017-12-22T06:13:05.027Z,52.60
2017-12-22T06:14:09.985Z,52.50
2017-12-22T06:15:14.777Z,52.50
2017-12-22T06:16:19.817Z,52.60
2017-12-22T06:17:24.851Z,52.60
2017-12-22T06:18:29.921Z,52.50
2017-12-22T06:19:34.951Z,52.50
2017-12-22T06:20:40.093Z,52.50
2017-12-22T06:21:45.031Z,52.50
2017-12-22T06:22:49.975Z,52.50
2017-12-22T06:23:54.811Z,52.40
2017-12-22T06:24:59.832Z,52.20
2017-12-22T06:26:05.067Z,52.40
2017-12-22T06:27:09.997Z,52.30
2017-12-22T06:28:14.721Z,52.30
2017-12-22T06:29:19.506Z,52.30
2017-12-22T06:30:24.370Z,52.30
2017-12-22T06:31:29.353Z,52.30
2017-12-22T06:32:34.343Z,52.30
2017-12-22T06:33:39.956Z,52.30
2017-12-22T06:34:44.821Z,52.20
2017-12-22T06:35:49.654Z,52.20
2017-12-22T06:36:54.588Z,52.30
2017-12-22T06:37:59.360Z,52.30
2017-12-22T06:39:04.353Z,52.30
2017-12-22T06:40:21.342Z,52.30
2017-12-22T06:41:26.362Z,52.30
2017-12-22T06:42:31.141Z,52.30
2017-12-22T06:43:36.094Z,52.20
2017-12-22T06:44:40.865Z,52.20
2017-12-22T06:45:46.325Z,52.30
2017-12-22T06:46:51.934Z,52.20
2017-12-22T06:47:57.038Z,52.20
2017-12-22T06:49:02.072Z,52.30
2017-12-22T06:50:06.950Z,52.40
2017-12-22T06:51:11.979Z,52.50
2017-12-22T06:52:16.948Z,52.60
2017-12-22T06:53:21.816Z,52.60
2017-12-22T06:54:26.759Z,52.70
2017-12-22T06:55:31.691Z,52.70
2017-12-22T06:56:36.500Z,52.70
2017-12-22T06:57:41.521Z,52.80
2017-12-22T06:58:46.531Z,52.80
2017-12-22T06:59:51.634Z,52.90
2017-12-22T07:00:56.372Z,52.90
2017-12-22T07:02:01.520Z,53.00
2017-12-22T07:03:06.363Z,53.00
2017-12-22T07:04:12.762Z,53.10
2017-12-22T07:05:17.919Z,53.10
2017-12-22T07:06:22.974Z,53.10
2017-12-22T07:07:28.025Z,53.10
2017-12-22T07:08:32.961Z,53.20
2017-12-22T07:09:38.005Z,53.20
2017-12-22T07:10:43.177Z,53.30
2017-12-22T07:11:48.225Z,53.30
2017-12-22T07:12:53.286Z,53.30
2017-12-22T07:13:58.207Z,53.30
2017-12-22T07:15:03.100Z,53.30
2017-12-22T07:16:07.949Z,53.40
2017-12-22T07:17:12.928Z,53.40
2017-12-22T07:18:18.045Z,53.40
2017-12-22T07:19:23.664Z,53.40
2017-12-22T07:20:28.760Z,53.40
2017-12-22T07:21:33.873Z,53.50
2017-12-22T07:22:39.161Z,53.50
2017-12-22T07:23:44.139Z,53.50
2017-12-22T07:24:48.947Z,53.00
2017-12-22T07:25:53.913Z,51.20
2017-12-22T07:26:58.867Z,50.20
2017-12-22T07:28:04.035Z,49.90
2017-12-22T07:29:08.841Z,49.70
2017-12-22T07:30:13.868Z,49.60
2017-12-22T07:31:19.079Z,48.90
2017-12-22T07:32:24.143Z,48.60
2017-12-22T07:33:29.230Z,48.20
2017-12-22T07:34:34.231Z,48.00
2017-12-22T07:35:39.323Z,48.10
2017-12-22T07:36:44.243Z,47.70
2017-12-22T07:37:49.395Z,47.40
2017-12-22T07:38:54.274Z,47.30
2017-12-22T07:39:59.296Z,47.50
2017-12-22T07:41:04.353Z,47.70
2017-12-22T07:42:09.466Z,47.80
2017-12-22T07:43:14.431Z,48.00
2017-12-22T07:44:19.451Z,48.10
2017-12-22T07:45:24.579Z,48.20
2017-12-22T07:46:29.462Z,48.40
2017-12-22T07:47:34.349Z,48.50
2017-12-22T07:48:39.220Z,48.60
2017-12-22T07:49:44.170Z,48.60
2017-12-22T07:50:49.296Z,48.80
2017-12-22T07:51:54.436Z,48.80
2017-12-22T07:52:59.550Z,49.50
2017-12-22T07:54:04.509Z,48.90
2017-12-22T07:55:09.658Z,49.00
2017-12-22T07:56:14.804Z,49.00
2017-12-22T07:57:19.856Z,49.40
2017-12-22T07:58:24.654Z,49.30
2017-12-22T07:59:29.554Z,49.30
2017-12-22T08:00:34.731Z,49.30
2017-12-22T08:01:39.850Z,49.30
2017-12-22T08:02:44.954Z,49.40
2017-12-22T08:03:49.989Z,49.40
2017-12-22T08:04:54.997Z,49.40
2017-12-22T08:06:00.035Z,49.50
2017-12-22T08:07:05.041Z,49.70
2017-12-22T08:08:09.996Z,49.70
2017-12-22T08:09:15.450Z,49.80
2017-12-22T08:10:20.362Z,50.50
2017-12-22T08:11:25.419Z,50.50
2017-12-22T08:12:30.525Z,49.90
2017-12-22T08:13:35.544Z,49.90
2017-12-22T08:14:40.753Z,49.90
2017-12-22T08:15:45.888Z,50.00
2017-12-22T08:16:50.991Z,50.00
2017-12-22T08:17:56.074Z,50.00
2017-12-22T08:19:01.229Z,50.10
2017-12-22T08:20:06.301Z,50.10
2017-12-22T08:21:11.433Z,50.10
2017-12-22T08:22:16.712Z,50.10
2017-12-22T08:23:21.788Z,50.10
2017-12-22T08:24:26.706Z,50.80
2017-12-22T08:25:31.807Z,50.20
2017-12-22T08:26:37.682Z,50.20
2017-12-22T08:27:42.722Z,50.20
2017-12-22T08:28:47.591Z,50.20
2017-12-22T08:29:52.480Z,50.20
2017-12-22T08:30:57.345Z,50.20
2017-12-22T08:32:02.503Z,50.20
2017-12-22T08:33:07.344Z,50.20
2017-12-22T08:34:12.214Z,50.20
2017-12-22T08:35:17.062Z,50.20
2017-12-22T08:36:21.927Z,50.20
2017-12-22T08:37:26.760Z,50.30
2017-12-22T08:38:31.767Z,50.20
2017-12-22T08:39:36.725Z,50.20
2017-12-22T08:40:41.702Z,50.20
2017-12-22T08:41:46.637Z,50.40
2017-12-22T08:42:51.661Z,50.20
2017-12-22T08:43:56.592Z,50.40
2017-12-22T08:45:02.618Z,51.00
2017-12-22T08:46:07.865Z,50.30
2017-12-22T08:47:13.011Z,50.30
2017-12-22T08:48:18.029Z,50.50
2017-12-22T08:49:23.131Z,50.50
2017-12-22T08:50:28.178Z,50.40
2017-12-22T08:51:33.364Z,50.50
2017-12-22T08:52:38.430Z,50.40
2017-12-22T08:53:43.513Z,50.40
2017-12-22T08:54:48.390Z,50.40
2017-12-22T08:55:53.345Z,51.10
2017-12-22T08:56:58.540Z,50.50
2017-12-22T08:58:03.572Z,50.40
2017-12-22T08:59:08.748Z,50.40
2017-12-22T09:00:13.819Z,50.40
2017-12-22T09:01:18.836Z,50.40
2017-12-22T09:02:23.889Z,50.50
2017-12-22T09:03:29.428Z,50.50
2017-12-22T09:04:34.609Z,50.50
2017-12-22T09:05:39.842Z,50.50
2017-12-22T09:06:45.138Z,50.50
2017-12-22T09:07:50.182Z,50.50
2017-12-22T09:08:55.365Z,50.50
2017-12-22T09:10:00.615Z,50.40
2017-12-22T09:11:05.830Z,50.50
2017-12-22T09:12:10.949Z,50.40
2017-12-22T09:13:15.959Z,50.50
2017-12-22T09:14:21.659Z,51.10
2017-12-22T09:15:26.830Z,50.40
2017-12-22T09:16:31.859Z,50.30
2017-12-22T09:17:36.835Z,50.10
2017-12-22T09:18:41.914Z,50.00
2017-12-22T09:19:47.330Z,50.00
2017-12-22T09:20:52.434Z,50.10
2017-12-22T09:21:57.586Z,50.10
2017-12-22T09:23:02.615Z,50.20
2017-12-22T09:24:07.516Z,50.10
2017-12-22T09:25:12.562Z,50.20
2017-12-22T09:26:17.566Z,50.20
2017-12-22T09:27:22.644Z,50.20
2017-12-22T09:28:27.734Z,50.30
2017-12-22T09:29:32.856Z,50.30
2017-12-22T09:30:37.795Z,50.30
2017-12-22T09:31:42.777Z,50.30
2017-12-22T09:32:48.000Z,50.40
2017-12-22T09:33:52.986Z,50.40
2017-12-22T09:34:58.030Z,50.30
2017-12-22T09:36:03.158Z,50.30
2017-12-22T09:37:08.497Z,50.30
2017-12-22T09:38:14.078Z,50.30
2017-12-22T09:39:19.192Z,50.30
2017-12-22T09:40:24.171Z,50.30
2017-12-22T09:41:29.113Z,50.30
2017-12-22T09:42:34.268Z,50.30
2017-12-22T09:43:39.411Z,50.30
2017-12-22T09:44:44.574Z,50.30
2017-12-22T09:45:49.835Z,50.40
2017-12-22T09:46:54.770Z,50.40
2017-12-22T09:47:59.871Z,50.40
2017-12-22T09:49:04.977Z,50.40
2017-12-22T09:50:10.183Z,50.50
2017-12-22T09:51:15.285Z,50.40
2017-12-22T09:52:20.917Z,50.40
2017-12-22T09:53:25.970Z,50.40
2017-12-22T09:54:30.992Z,50.40
2017-12-22T09:55:36.730Z,50.40
2017-12-22T09:56:41.900Z,50.40
2017-12-22T09:57:46.854Z,50.40
2017-12-22T09:58:51.996Z,50.50
2017-12-22T09:59:56.973Z,50.50
2017-12-22T10:01:02.107Z,50.50
2017-12-22T10:02:07.234Z,50.50
2017-12-22T10:03:12.359Z,50.50
2017-12-22T10:04:17.532Z,50.60
2017-12-22T10:05:22.678Z,50.60
2017-12-22T10:06:27.842Z,50.70
2017-12-22T10:07:32.979Z,50.70
2017-12-22T10:08:38.064Z,50.80
2017-12-22T10:09:43.241Z,50.80
2017-12-22T10:10:48.295Z,50.70
2017-12-22T10:11:53.268Z,50.70
2017-12-22T10:12:58.193Z,50.60
2017-12-22T10:14:03.114Z,50.60
2017-12-22T10:15:08.292Z,50.60
2017-12-22T10:16:13.229Z,50.90
2017-12-22T10:17:18.247Z,51.10
2017-12-22T10:18:23.196Z,52.20
2017-12-22T10:19:28.325Z,51.40
2017-12-22T10:20:33.284Z,51.60
2017-12-22T10:21:38.194Z,51.90
2017-12-22T10:22:43.118Z,52.30
2017-12-22T10:23:48.185Z,52.00
2017-12-22T10:24:53.159Z,51.60
2017-12-22T10:25:58.575Z,51.30
2017-12-22T10:27:03.707Z,51.20
2017-12-22T10:28:08.751Z,51.10
2017-12-22T10:29:13.850Z,51.10
2017-12-22T10:30:19.307Z,51.00
2017-12-22T10:31:24.348Z,51.10
2017-12-22T10:32:29.402Z,51.00
2017-12-22T10:33:34.603Z,51.10
2017-12-22T10:34:39.551Z,51.10
2017-12-22T10:35:44.622Z,51.10
2017-12-22T10:36:49.634Z,51.20
2017-12-22T10:37:54.501Z,51.10
2017-12-22T10:38:59.545Z,51.10
2017-12-22T10:40:04.555Z,51.20
2017-12-22T10:41:09.424Z,51.30
2017-12-22T10:42:14.454Z,51.50
2017-12-22T10:43:20.456Z,51.50
2017-12-22T10:44:25.282Z,51.30
2017-12-22T10:45:30.312Z,51.10
2017-12-22T10:46:35.360Z,50.90
2017-12-22T10:47:41.180Z,51.00
2017-12-22T10:48:46.018Z,50.60
2017-12-22T10:49:51.273Z,50.00
2017-12-22T10:50:56.339Z,49.60
2017-12-22T10:52:01.582Z,49.20
2017-12-22T10:53:06.806Z,49.10
2017-12-22T10:54:12.115Z,49.10
2017-12-22T10:55:17.645Z,49.10
2017-12-22T10:56:22.600Z,49.20
2017-12-22T10:57:28.230Z,49.40
2017-12-22T10:58:33.993Z,49.60
2017-12-22T10:59:40.009Z,49.60
2017-12-22T11:00:45.785Z,49.70
2017-12-22T11:01:51.355Z,49.70
2017-12-22T11:02:56.981Z,49.70
2017-12-22T11:04:02.291Z,49.50
2017-12-22T11:05:07.585Z,49.30
2017-12-22T11:06:12.947Z,49.30
2017-12-22T11:07:18.114Z,49.30
2017-12-22T11:08:23.240Z,49.60
2017-12-22T11:09:28.327Z,49.70
2017-12-22T11:10:33.527Z,49.80
2017-12-22T11:11:38.553Z,49.90
2017-12-22T11:12:43.705Z,50.00
2017-12-22T11:13:48.727Z,50.10
2017-12-22T11:14:54.093Z,50.10
2017-12-22T11:15:59.319Z,50.20
2017-12-22T11:17:04.492Z,50.30
2017-12-22T11:18:09.604Z,50.30
2017-12-22T11:19:14.673Z,50.30
2017-12-22T11:20:19.747Z,50.50
2017-12-22T11:21:26.020Z,50.50
2017-12-22T11:22:31.162Z,50.60
2017-12-22T11:23:36.412Z,50.60
2017-12-22T11:24:41.628Z,50.50
2017-12-22T11:25:46.962Z,50.50
2017-12-22T11:26:52.181Z,50.50
2017-12-22T11:27:57.297Z,50.50
2017-12-22T11:29:02.559Z,50.50
2017-12-22T11:30:07.625Z,50.70
2017-12-22T11:31:12.784Z,50.60
2017-12-22T11:32:17.940Z,50.60
2017-12-22T11:33:23.144Z,50.50
2017-12-22T11:34:28.381Z,50.60
2017-12-22T11:35:33.481Z,50.50
2017-12-22T11:36:39.102Z,50.40
2017-12-22T11:37:45.078Z,50.40
2017-12-22T11:38:50.686Z,50.40
2017-12-22T11:39:56.407Z,50.40
2017-12-22T11:41:02.023Z,50.40
2017-12-22T11:42:07.429Z,50.40
2017-12-22T11:43:12.718Z,50.50
2017-12-22T11:44:17.850Z,50.50
2017-12-22T11:45:22.941Z,50.50
2017-12-22T11:46:27.999Z,50.50
2017-12-22T11:47:33.090Z,50.50
2017-12-22T11:48:38.340Z,50.50
2017-12-22T11:49:43.332Z,50.60
2017-12-22T11:50:49.434Z,50.70
2017-12-22T11:51:55.309Z,50.70
2017-12-22T11:53:00.804Z,50.80
2017-12-22T11:54:06.571Z,50.90
2017-12-22T11:55:13.024Z,50.80
2017-12-22T11:56:18.753Z,50.80
2017-12-22T11:57:24.596Z,50.70
2017-12-22T11:58:29.731Z,50.90
2017-12-22T11:59:34.742Z,52.30
2017-12-22T12:00:39.929Z,52.40
2017-12-22T12:01:45.034Z,51.90
2017-12-22T12:02:50.322Z,51.50
2017-12-22T12:03:55.471Z,51.30
2017-12-22T12:05:00.470Z,51.20
2017-12-22T12:06:05.864Z,51.20
2017-12-22T12:07:10.921Z,51.00
2017-12-22T12:08:16.028Z,51.00
2017-12-22T12:09:21.085Z,51.00
2017-12-22T12:10:26.913Z,51.10
2017-12-22T12:11:32.021Z,51.10
2017-12-22T12:12:37.263Z,51.30
2017-12-22T12:13:42.629Z,51.20
2017-12-22T12:14:47.759Z,51.20
2017-12-22T12:15:53.084Z,51.20
2017-12-22T12:16:58.198Z,51.20
2017-12-22T12:18:03.082Z,51.20
2017-12-22T12:19:07.997Z,51.30
2017-12-22T12:20:13.076Z,51.30
2017-12-22T12:21:18.222Z,51.30
2017-12-22T12:22:24.101Z,51.30
2017-12-22T12:23:29.597Z,51.40
2017-12-22T12:24:35.346Z,52.00
2017-12-22T12:25:40.458Z,51.40
2017-12-22T12:26:45.605Z,51.50
2017-12-22T12:27:50.549Z,51.50
2017-12-22T12:28:55.660Z,51.50
2017-12-22T12:30:00.939Z,51.60
2017-12-22T12:31:06.078Z,51.60
2017-12-22T12:32:11.408Z,51.60
2017-12-22T12:33:16.593Z,51.70
2017-12-22T12:34:21.783Z,51.70
2017-12-22T12:35:27.248Z,51.70
2017-12-22T12:36:32.651Z,52.40
2017-12-22T12:37:37.907Z,52.00
2017-12-22T12:38:42.934Z,51.90
2017-12-22T12:39:47.914Z,51.90
2017-12-22T12:40:52.906Z,51.80
2017-12-22T12:41:58.475Z,51.70
2017-12-22T12:43:03.421Z,51.70
2017-12-22T12:44:08.451Z,51.70
2017-12-22T12:45:13.500Z,51.70
2017-12-22T12:46:19.300Z,51.70
2017-12-22T12:47:24.579Z,51.80
2017-12-22T12:48:29.778Z,51.80
2017-12-22T12:49:34.715Z,51.80
2017-12-22T12:50:39.744Z,51.90
2017-12-22T12:51:45.015Z,51.90
2017-12-22T12:52:50.357Z,51.80
2017-12-22T12:53:55.603Z,51.80
2017-12-22T12:55:00.706Z,51.80
2017-12-22T12:56:06.859Z,51.80
2017-12-22T12:57:11.927Z,51.80
2017-12-22T12:58:17.134Z,51.90
2017-12-22T12:59:22.150Z,51.80
2017-12-22T13:00:27.282Z,51.80
2017-12-22T13:01:32.407Z,51.90
2017-12-22T13:02:37.530Z,51.80
2017-12-22T13:03:42.658Z,51.80
2017-12-22T13:04:47.841Z,51.80
2017-12-22T13:05:52.968Z,51.80
2017-12-22T13:06:58.136Z,51.80
2017-12-22T13:08:03.286Z,51.80
2017-12-22T13:09:08.332Z,51.80
2017-12-22T13:10:13.302Z,51.70
2017-12-22T13:11:18.554Z,51.80
2017-12-22T13:12:23.511Z,51.80
2017-12-22T13:13:28.789Z,51.80
2017-12-22T13:14:34.425Z,51.80
2017-12-22T13:15:39.447Z,51.80
2017-12-22T13:16:44.416Z,51.80
2017-12-22T13:17:49.571Z,51.80
2017-12-22T13:18:54.735Z,51.80
2017-12-22T13:19:59.682Z,51.80
2017-12-22T13:21:07.711Z,51.80
2017-12-22T13:22:12.960Z,51.80
2017-12-22T13:23:18.070Z,51.80
2017-12-22T13:24:23.140Z,51.80
2017-12-22T13:25:28.321Z,51.80
2017-12-22T13:26:33.307Z,51.80
2017-12-22T13:27:38.257Z,51.80
2017-12-22T13:28:43.284Z,51.80
2017-12-22T13:29:48.969Z,51.90
2017-12-22T13:30:55.380Z,51.90
2017-12-22T13:32:01.088Z,51.90
2017-12-22T13:33:06.084Z,51.90
2017-12-22T13:34:11.463Z,51.80
2017-12-22T13:35:16.406Z,51.90
2017-12-22T13:36:22.183Z,51.90
2017-12-22T13:37:27.057Z,51.90
2017-12-22T13:38:31.982Z,51.90
2017-12-22T13:39:37.232Z,51.90
2017-12-22T13:40:42.279Z,51.90
2017-12-22T13:41:47.405Z,51.90
2017-12-22T13:42:52.599Z,51.90
2017-12-22T13:43:57.616Z,51.90
2017-12-22T13:45:02.931Z,52.00
2017-12-22T13:46:08.267Z,51.90
2017-12-22T13:47:13.414Z,51.90
2017-12-22T13:48:18.539Z,51.90
2017-12-22T13:49:23.511Z,52.00
2017-12-22T13:50:28.620Z,52.00
2017-12-22T13:51:33.795Z,52.00
2017-12-22T13:52:38.758Z,52.00
2017-12-22T13:53:43.976Z,52.10
2017-12-22T13:54:49.126Z,52.10
2017-12-22T13:55:54.100Z,52.20
2017-12-22T13:56:59.229Z,52.10
2017-12-22T13:58:04.424Z,52.30